Time;durP1;ratioP1;P1;durP2;ratioP2;P2;SDS_P1;SDS_P2;PMS_P1;PMS_P2;Temp;Humidity;BMP_temperature;BMP_pressure;BME280_temperature;BME280_humidity;BME280_pressure;Samples;Min_cycle;Max_cycle;Signal;HPM_P1;HPM_P2
2022/12/28 00:00:38;;;;;;;6.72;3.47;;;;;;;2.06;84.98;101290.69;6307211;22;20463;-75
2022/12/28 00:03:42;;;;;;;12.38;6.68;;;;;;;2.01;85.30;101286.41;6306843;22;20068;-76
2022/12/28 00:06:49;;;;;;;13.98;6.80;;;;;;;2.12;84.71;101281.22;6288348;22;20123;-76
2022/12/28 00:09:53;;;;;;;10.52;5.50;;;;;;;2.12;84.42;101281.22;6307108;22;20084;-76
2022/12/28 00:12:57;;;;;;;10.02;4.40;;;;;;;2.01;85.47;101276.09;6306982;22;20080;-77
2022/12/28 00:16:09;;;;;;;8.05;3.13;;;;;;;2.02;85.85;101263.22;6307046;22;20095;-76
2022/12/28 00:19:15;;;;;;;11.15;8.05;;;;;;;2.13;85.63;101259.72;6288029;22;20026;-77
2022/12/28 00:22:18;;;;;;;10.38;6.85;;;;;;;2.28;85.02;101236.41;6306972;22;20514;-76
2022/12/28 00:25:22;;;;;;;9.07;5.30;;;;;;;2.20;85.11;101220.97;6306395;22;20025;-76
2022/12/28 00:28:25;;;;;;;6.38;3.03;;;;;;;2.22;84.79;101218.38;6306935;22;20084;-77
2022/12/28 00:31:28;;;;;;;;;;;;;;;2.17;85.17;101207.22;6288574;22;20022;-77
2022/12/28 00:34:32;;;;;;;10.97;2.70;;;;;;;2.02;85.87;101198.72;6269984;22;20347;-77
2022/12/28 00:37:36;;;;;;;7.63;3.50;;;;;;;2.15;85.43;101198.66;6306790;22;20714;-76
2022/12/28 00:40:42;;;;;;;5.45;3.88;;;;;;;2.12;85.44;101184.03;6287299;22;20080;-77
2022/12/28 00:43:45;;;;;;;6.43;3.63;;;;;;;2.22;85.08;101182.25;6306151;22;20023;-77
2022/12/28 00:46:49;;;;;;;8.25;3.40;;;;;;;2.27;85.00;101185.66;6306703;22;20072;-77
2022/12/28 00:49:52;;;;;;;4.55;2.83;;;;;;;2.17;85.31;101176.25;6287791;22;20507;-77
2022/12/28 00:52:55;;;;;;;7.32;2.47;;;;;;;2.18;85.52;101165.94;6306722;22;20521;-77
2022/12/28 00:56:20;;;;;;;7.35;3.08;;;;;;;2.25;85.65;101153.84;6287878;22;20018;-77
2022/12/28 00:59:24;;;;;;;5.93;2.65;;;;;;;2.25;85.79;101151.28;6287820;22;20025;-77
2022/12/28 01:02:27;;;;;;;6.03;3.80;;;;;;;2.24;85.65;101145.25;6306550;22;20025;-77
2022/12/28 01:05:30;;;;;;;6.35;3.58;;;;;;;2.32;85.77;101138.28;6306622;22;20026;-76
2022/12/28 01:08:38;;;;;;;6.38;3.10;;;;;;;2.33;85.40;101128.84;6306588;22;20390;-76
2022/12/28 01:11:42;;;;;;;6.85;2.72;;;;;;;2.36;85.52;101139.13;6287758;22;20026;-76
2022/12/28 01:14:45;;;;;;;5.97;2.45;;;;;;;2.35;85.25;101147.75;6306516;22;20514;-76
2022/12/28 01:17:48;;;;;;;5.97;1.95;;;;;;;2.35;85.69;101147.75;6306389;22;20072;-77
2022/12/28 01:20:52;;;;;;;7.63;2.60;;;;;;;2.36;86.07;101149.44;6306582;22;20045;-77
2022/12/28 01:23:57;;;;;;;7.55;2.60;;;;;;;2.31;85.67;101146.06;6287484;22;20356;-78
2022/12/28 01:27:01;;;;;;;6.20;2.70;;;;;;;2.35;85.64;101147.75;6306579;22;20451;-78
2022/12/28 01:30:05;;;;;;;5.60;1.92;;;;;;;2.39;85.86;101144.25;6306472;22;20034;-78
2022/12/28 01:33:08;;;;;;;5.25;2.08;;;;;;;2.48;85.82;101145.91;6287259;22;20049;-78
2022/12/28 01:36:21;;;;;;;6.75;2.45;;;;;;;2.43;85.82;101148.53;6306296;22;20463;-78
2022/12/28 01:39:24;;;;;;;4.43;2.15;;;;;;;2.41;85.53;101137.38;6287490;22;20025;-77
2022/12/28 01:42:31;;;;;;;2.80;1.60;;;;;;;2.35;86.68;101149.47;6287670;22;20026;-76
2022/12/28 01:45:37;;;;;;;3.90;1.95;;;;;;;2.32;86.18;101152.91;6287410;22;20030;-76
2022/12/28 01:48:48;;;;;;;5.25;2.58;;;;;;;2.47;85.92;101152.78;6287405;22;20352;-77
2022/12/28 01:52:15;;;;;;;9.35;2.80;;;;;;;2.42;86.47;101143.38;6306399;22;20026;-78
2022/12/28 01:55:18;;;;;;;6.53;2.17;;;;;;;2.53;85.78;101142.41;6306305;22;20024;-77
2022/12/28 01:58:27;;;;;;;5.75;2.90;;;;;;;2.56;85.95;101144.97;6306393;22;20459;-77
2022/12/28 02:01:30;;;;;;;6.68;2.80;;;;;;;2.52;86.21;101147.56;6287319;22;20030;-77
2022/12/28 02:04:33;;;;;;;5.57;2.67;;;;;;;2.48;86.66;101126.09;6306202;22;20451;-77
2022/12/28 02:07:50;;;;;;;;;;;;;;;2.56;86.22;101132.06;6306771;22;20089;-77
2022/12/28 02:10:54;;;;;;;4.35;2.20;;;;;;;2.58;86.38;101103.63;6306355;22;19954;-76
2022/12/28 02:14:00;;;;;;;8.43;2.80;;;;;;;2.48;86.55;101102.88;6287151;22;20018;-77
2022/12/28 02:17:04;;;;;;;9.60;2.63;;;;;;;2.54;86.49;101089.06;6306139;22;20026;-77
2022/12/28 02:20:08;;;;;;;6.60;3.15;;;;;;;2.60;86.23;101085.56;6287329;22;20395;-76
2022/12/28 02:23:33;;;;;;;8.98;3.45;;;;;;;2.59;86.68;101068.38;6286466;22;20030;-76
2022/12/28 04:49:38;;;;;;;5.55;2.72;;;;;;;3.59;93.05;100871.44;4692760;28;10002007;-77
2022/12/28 04:52:42;;;;;;;7.68;3.38;;;;;;;3.60;92.54;100861.03;5038644;28;20106;-77
2022/12/28 05:07:07;;;;;;;12.43;8.95;;;;;;;3.67;94.66;100841.09;5146498;27;20369;-78
2022/12/28 05:20:46;;;;;;;8.05;5.00;;;;;;;3.83;96.00;100824.44;5105662;27;20881;-67
2022/12/28 05:23:50;;;;;;;7.43;4.45;;;;;;;3.99;95.04;100811.16;5106350;28;20047;-67
2022/12/28 05:26:54;;;;;;;8.45;4.63;;;;;;;4.07;94.29;100798.94;5106061;28;20128;-67
2022/12/28 05:29:57;;;;;;;6.93;4.47;;;;;;;3.96;95.94;100801.75;5102572;28;20097;-67
2022/12/28 05:43:23;;;;;;;6.80;4.90;;;;;;;4.11;97.25;100785.88;5025812;28;20750;-77
2022/12/28 05:46:28;;;;;;;;;;;;;;;4.26;96.58;100784.69;5002442;28;20100;-77
2022/12/28 06:00:16;;;;;;;7.30;3.70;;;;;;;4.38;100.00;100778.41;5101179;27;20398;-77
2022/12/28 06:03:19;;;;;;;8.65;3.30;;;;;;;4.58;98.47;100775.34;5101701;28;20046;-77
2022/12/28 06:06:23;;;;;;;;;;;;;;;4.70;97.68;100780.25;5095641;28;20098;-76
2022/12/28 06:09:26;;;;;;;5.53;3.10;;;;;;;4.85;97.03;100777.28;5101814;28;20296;-76
2022/12/28 06:12:30;;;;;;;6.32;2.90;;;;;;;4.90;97.50;100777.16;5101889;28;20055;-76
2022/12/28 06:15:33;;;;;;;6.60;3.00;;;;;;;4.99;97.05;100776.94;5103998;28;20436;-76
2022/12/28 06:18:36;;;;;;;;;;;;;;;5.08;97.34;100773.28;5101908;28;20042;-76
2022/12/28 06:21:40;;;;;;;5.40;2.40;;;;;;;5.06;98.12;100768.09;5104424;28;20049;-77
2022/12/28 06:24:43;;;;;;;9.13;4.00;;;;;;;5.05;98.42;100765.56;5105156;28;20406;-77
2022/12/28 06:40:34;;;;;;;6.30;2.45;;;;;;;5.50;96.64;100728.94;6227593;22;1315012;-75
2022/12/28 06:43:40;;;;;;;6.03;2.72;;;;;;;5.54;96.39;100731.38;6280183;22;20022;-75
2022/12/28 06:46:44;;;;;;;3.53;1.58;;;;;;;5.65;95.49;100741.47;6261512;22;20480;-75
2022/12/28 06:50:06;;;;;;;3.35;1.45;;;;;;;6.18;91.59;100736.44;6279355;22;20058;-75
2022/12/28 06:53:11;;;;;;;5.53;1.50;;;;;;;6.15;92.62;100741.75;6278308;22;20357;-75
2022/12/28 06:56:29;;;;;;;4.28;1.60;;;;;;;6.23;91.99;100731.13;6281673;22;20153;-75
2022/12/28 06:59:33;;;;;;;4.03;1.70;;;;;;;6.26;91.52;100729.28;6282069;22;20061;-75
2022/12/28 07:02:36;;;;;;;4.28;1.52;;;;;;;6.11;92.75;100739.28;6283818;22;20095;-76
2022/12/28 07:05:40;;;;;;;4.55;1.30;;;;;;;6.35;90.67;100727.28;6281063;22;20070;-77
2022/12/28 07:08:44;;;;;;;3.55;1.13;;;;;;;6.47;89.39;100721.72;6282907;22;20080;-76
2022/12/28 07:11:49;;;;;;;7.03;1.73;;;;;;;6.55;88.90;100737.06;6282629;22;20026;-75
2022/12/28 07:14:52;;;;;;;3.33;1.23;;;;;;;6.62;88.29;100725.56;6282103;22;20054;-75
2022/12/28 07:17:57;;;;;;;4.10;1.27;;;;;;;6.64;87.94;100719.44;6282675;22;20026;-75
2022/12/28 07:21:04;;;;;;;6.32;1.33;;;;;;;6.74;87.12;100720.81;6281738;22;20091;-75
2022/12/28 07:24:07;;;;;;;4.45;1.20;;;;;;;6.66;87.74;100717.59;6281914;22;20077;-75
2022/12/28 07:27:11;;;;;;;4.63;1.25;;;;;;;6.68;88.94;100723.63;6281893;22;20054;-75
2022/12/28 07:30:14;;;;;;;5.18;0.90;;;;;;;6.66;88.38;100715.00;6281867;22;20097;-75
2022/12/28 07:33:17;;;;;;;;;;;;;;;6.69;89.36;100714.91;6283725;22;20483;-75
2022/12/28 07:36:21;;;;;;;5.13;0.95;;;;;;;6.99;85.45;100705.25;6283466;22;20343;-74
2022/12/28 07:39:24;;;;;;;2.33;0.77;;;;;;;7.13;84.81;100701.31;6282494;22;20019;-75
2022/12/28 07:42:28;;;;;;;4.25;1.45;;;;;;;7.07;84.93;100707.56;6274083;22;20097;-75
2022/12/28 07:45:32;;;;;;;;;;;;;;;7.05;85.15;100701.59;6276023;22;20098;-77
2022/12/28 07:48:36;;;;;;;5.25;2.35;;;;;;;6.99;85.83;100704.41;6275685;22;20348;-74
2022/12/28 07:51:40;;;;;;;5.15;1.60;;;;;;;7.19;83.61;100693.28;6276195;22;20416;-75
2022/12/28 07:54:43;;;;;;;;;;;;;;;7.20;83.88;100687.19;6275976;22;20065;-75
2022/12/28 07:57:49;;;;;;;6.13;1.30;;;;;;;7.25;83.57;100689.63;6275447;22;19914;-75
2022/12/28 08:00:53;;;;;;;4.03;1.17;;;;;;;7.22;84.10;100691.44;6276036;22;20529;-75
2022/12/28 08:04:03;;;;;;;3.75;0.90;;;;;;;7.23;83.57;100692.28;6273458;22;20134;-74
2022/12/28 08:07:07;;;;;;;4.55;1.05;;;;;;;7.33;83.46;100685.81;6272613;22;20021;-73
2022/12/28 08:10:11;;;;;;;5.47;1.40;;;;;;;7.35;83.03;100691.84;6273337;22;20479;-75
2022/12/28 08:13:14;;;;;;;;;;;;;;;7.30;83.05;100682.50;6275231;22;20027;-74
2022/12/28 08:16:54;;;;;;;2.80;0.95;;;;;;;7.38;82.03;100696.09;6274705;22;19953;-73
2022/12/28 08:19:59;;;;;;;9.30;2.17;;;;;;;7.42;82.34;100701.09;6275048;22;20034;-76
2022/12/28 08:23:02;;;;;;;4.45;1.58;;;;;;;7.48;81.59;100697.44;6275075;22;20023;-75
2022/12/28 08:26:12;;;;;;;5.00;1.55;;;;;;;7.51;81.82;100699.94;6275037;22;20091;-76
2022/12/28 08:29:18;;;;;;;4.35;2.20;;;;;;;7.57;81.13;100693.66;6274877;22;20069;-76
2022/12/28 08:32:21;;;;;;;5.97;1.50;;;;;;;7.72;79.88;100700.03;6274489;22;20026;-75
2022/12/28 08:35:25;;;;;;;;;;;;;;;7.68;80.24;100699.28;6275117;22;20049;-75
2022/12/28 08:38:29;;;;;;;;;;;;;;;7.64;80.39;100701.16;6274597;22;19918;-76
2022/12/28 08:41:32;;;;;;;3.67;1.00;;;;;;;7.76;79.85;100694.66;6274875;22;19917;-77
2022/12/28 08:44:35;;;;;;;;;;;;;;;7.70;79.85;100705.31;6275488;22;20475;-76
2022/12/28 08:47:38;;;;;;;10.98;3.35;;;;;;;7.85;79.01;100701.28;6275717;22;19950;-77
2022/12/28 08:50:42;;;;;;;6.60;1.95;;;;;;;7.94;77.81;100700.91;6274634;22;20357;-76
2022/12/28 08:53:46;;;;;;;3.53;1.02;;;;;;;7.97;77.21;100707.75;6275084;22;20075;-75
2022/12/28 08:56:52;;;;;;;4.65;1.52;;;;;;;7.96;77.96;100699.09;6275276;22;20300;-75
2022/12/28 08:59:55;;;;;;;6.70;1.50;;;;;;;8.01;77.39;100702.38;6275668;22;20022;-75
2022/12/28 09:02:59;;;;;;;;;;;;;;;8.07;75.72;100699.53;6275740;22;20405;-71
2022/12/28 09:06:11;;;;;;;2.85;1.15;;;;;;;8.08;76.32;100711.66;6275485;22;19988;-70
2022/12/28 09:09:16;;;;;;;4.55;0.98;;;;;;;8.14;75.34;100694.94;6275560;22;20341;-71
2022/12/28 09:12:19;;;;;;;5.80;1.35;;;;;;;8.13;76.29;100699.28;6275868;22;20034;-74
2022/12/28 09:16:13;;;;;;;3.40;1.63;;;;;;;8.19;74.99;100694.75;6275621;22;20702;-75
2022/12/28 09:19:27;;;;;;;11.57;1.30;;;;;;;8.24;74.89;100692.81;6275700;22;20358;-75
2022/12/28 09:22:36;;;;;;;6.93;2.05;;;;;;;8.21;75.37;100692.94;6275778;22;20514;-74
2022/12/28 09:25:40;;;;;;;2.83;0.73;;;;;;;8.24;74.71;100700.63;6257271;22;20026;-74
2022/12/28 09:28:48;;;;;;;3.88;1.00;;;;;;;8.31;74.96;100689.06;6275727;22;20039;-74
2022/12/28 09:31:52;;;;;;;7.57;1.50;;;;;;;8.30;74.39;100679.56;6275777;22;20407;-73
2022/12/28 09:34:55;;;;;;;4.45;1.35;;;;;;;8.31;74.51;100681.25;6275431;22;20054;-74
2022/12/28 09:37:58;;;;;;;2.75;1.05;;;;;;;8.39;74.07;100681.78;6275629;22;20022;-72
2022/12/28 09:41:10;;;;;;;4.03;1.30;;;;;;;8.43;75.10;100683.38;6275620;22;20467;-73
2022/12/28 09:44:16;;;;;;;5.20;1.27;;;;;;;8.40;74.40;100678.28;6275609;22;20103;-75
2022/12/28 09:47:27;;;;;;;4.72;0.98;;;;;;;8.47;74.28;100679.72;6275514;22;20021;-74
2022/12/28 09:50:31;;;;;;;6.95;1.65;;;;;;;8.54;74.50;100680.31;6274398;22;20354;-74
2022/12/28 09:53:35;;;;;;;4.63;0.90;;;;;;;8.63;73.83;100677.34;6275459;22;20026;-74
2022/12/28 09:56:42;;;;;;;6.45;2.42;;;;;;;8.63;74.16;100689.53;6275294;22;20095;-74
2022/12/28 09:59:48;;;;;;;23.58;16.75;;;;;;;8.67;73.84;100684.13;6275070;22;20061;-74
2022/12/28 10:02:56;;;;;;;8.35;2.08;;;;;;;8.70;73.31;100665.72;6273137;22;20027;-74
2022/12/28 10:06:00;;;;;;;4.57;1.52;;;;;;;8.81;73.08;100671.34;6273743;22;20050;-75
2022/12/28 10:09:11;;;;;;;4.85;1.77;;;;;;;8.80;73.10;100669.63;6273952;22;20057;-74
2022/12/28 10:12:20;;;;;;;9.75;5.88;;;;;;;8.85;72.79;100675.53;6275356;22;20031;-75
2022/12/28 10:15:27;;;;;;;5.28;2.35;;;;;;;8.85;72.77;100669.47;6275543;22;20077;-73
2022/12/28 10:18:31;;;;;;;5.57;1.85;;;;;;;8.92;72.02;100673.50;6275515;22;20107;-73
2022/12/28 10:21:35;;;;;;;8.80;5.53;;;;;;;8.91;72.46;100664.00;6275397;22;20039;-74
2022/12/28 10:24:40;;;;;;;6.93;1.88;;;;;;;8.92;72.16;100667.44;6275395;22;20077;-74
2022/12/28 10:27:44;;;;;;;8.55;3.58;;;;;;;8.95;72.20;100655.09;6275273;22;20031;-74
2022/12/28 10:31:04;;;;;;;6.43;1.98;;;;;;;9.06;71.93;100650.28;6275424;22;20022;-74
2022/12/28 10:34:19;;;;;;;2.95;0.80;;;;;;;8.99;71.90;100643.63;6275494;22;20479;-74
2022/12/28 10:37:24;;;;;;;6.63;2.15;;;;;;;9.14;72.09;100638.66;6275202;22;20118;-74
2022/12/28 10:40:31;;;;;;;5.75;1.77;;;;;;;9.16;72.26;100642.06;6273675;22;20046;-74
2022/12/28 10:43:39;;;;;;;7.38;1.27;;;;;;;9.19;72.12;100641.88;6275235;22;20113;-73
2022/12/28 10:46:53;;;;;;;5.50;2.55;;;;;;;9.24;71.90;100639.94;6275358;22;20027;-73
2022/12/28 10:49:57;;;;;;;7.03;1.70;;;;;;;9.16;71.04;100639.44;6274819;22;20107;-75
2022/12/28 10:53:00;;;;;;;5.78;2.15;;;;;;;9.15;70.55;100624.69;6274933;22;20027;-74
2022/12/28 10:56:10;;;;;;;11.98;2.95;;;;;;;9.23;70.21;100617.38;6274603;22;20059;-75
2022/12/28 10:59:25;;;;;;;6.35;2.40;;;;;;;9.32;70.22;100616.97;6274985;22;20022;-79
2022/12/28 11:02:33;;;;;;;9.10;2.22;;;;;;;9.73;70.81;100601.13;6273849;22;20026;-83
2022/12/28 11:05:37;;;;;;;22.25;2.28;;;;;;;9.96;69.10;100592.19;6273782;22;20027;-77
2022/12/28 11:08:43;;;;;;;5.28;1.42;;;;;;;9.75;68.27;100578.41;6274165;22;20093;-73
2022/12/28 11:11:51;;;;;;;3.33;0.98;;;;;;;9.42;68.73;100592.13;6256022;22;20030;-74
2022/12/28 11:14:55;;;;;;;6.72;2.28;;;;;;;9.32;69.66;100586.50;6273893;22;20080;-73
2022/12/28 11:18:01;;;;;;;2.95;1.35;;;;;;;9.19;69.41;100581.88;6276821;22;20023;-75
2022/12/28 11:24:16;;;;;;;3.05;0.98;;;;;;;9.13;69.65;100571.75;6286477;22;20027;-82
2022/12/28 11:27:24;;;;;;;3.00;1.23;;;;;;;9.12;69.60;100572.66;6279864;22;20026;-84
2022/12/28 11:46:29;;;;;;;4.68;1.60;;;;;;;9.16;68.44;100535.09;5109020;27;20913;-74
2022/12/28 11:49:34;;;;;;;2.90;1.35;;;;;;;9.20;68.70;100518.38;5097975;28;20081;-73
2022/12/28 11:52:48;;;;;;;8.43;4.70;;;;;;;9.25;68.46;100525.06;5076251;28;20086;-72
2022/12/28 11:56:24;;;;;;;;;;;;;;;9.16;68.60;100525.50;5094013;28;20115;-73
2022/12/28 11:59:33;;;;;;;5.57;1.23;;;;;;;9.21;68.57;100520.06;5077428;28;19961;-73
2022/12/28 12:02:38;;;;;;;4.07;1.08;;;;;;;9.12;69.28;100525.69;5097083;28;20122;-74
2022/12/28 12:05:42;;;;;;;5.50;2.15;;;;;;;9.27;68.99;100515.41;5098155;28;20165;-75
2022/12/28 12:08:49;;;;;;;6.03;1.13;;;;;;;9.22;67.85;100526.97;5074971;28;20043;-75
2022/12/28 12:11:54;;;;;;;2.85;0.80;;;;;;;9.28;67.19;100526.69;5096975;28;20512;-74
2022/12/28 12:15:08;;;;;;;4.65;1.25;;;;;;;9.20;67.39;100534.03;5085021;28;20051;-75
2022/12/28 12:18:42;;;;;;;8.55;3.45;;;;;;;9.27;68.08;100517.16;5096936;28;20040;-75
2022/12/28 12:21:59;;;;;;;4.03;1.58;;;;;;;9.15;68.79;100509.91;5098309;28;20096;-74
2022/12/28 12:25:17;;;;;;;3.20;1.20;;;;;;;9.21;69.01;100504.41;5099782;28;20123;-74
2022/12/28 12:28:33;;;;;;;13.10;1.00;;;;;;;9.30;68.19;100509.19;5097750;28;20431;-74
2022/12/28 12:31:44;;;;;;;7.25;4.18;;;;;;;9.33;68.33;100506.44;5093875;28;20043;-73
2022/12/28 12:34:59;;;;;;;7.07;3.33;;;;;;;9.43;69.23;100504.25;5102075;28;20055;-72
2022/12/28 12:38:35;;;;;;;5.03;1.50;;;;;;;9.46;68.71;100504.94;5097493;28;20047;-72
2022/12/28 12:41:55;;;;;;;4.18;1.80;;;;;;;9.38;68.11;100495.78;5090726;28;20047;-75
2022/12/28 12:45:12;;;;;;;6.95;3.38;;;;;;;9.39;68.75;100500.09;5086889;28;20150;-75
2022/12/28 12:48:42;;;;;;;9.73;4.18;;;;;;;9.35;68.31;100496.78;5082623;28;20043;-73
2022/12/28 12:51:58;;;;;;;6.15;2.70;;;;;;;9.36;68.37;100493.25;5068550;28;20071;-72
2022/12/28 12:55:26;;;;;;;4.55;1.48;;;;;;;9.29;67.86;100487.47;5074635;28;20047;-72
2022/12/28 12:59:08;;;;;;;6.03;2.42;;;;;;;9.35;68.33;100486.34;5074111;28;20405;-73
2022/12/28 13:02:11;;;;;;;7.10;1.98;;;;;;;9.26;68.69;100492.00;5074455;28;20535;-75
2022/12/28 13:05:25;;;;;;;3.60;1.23;;;;;;;9.18;69.22;100483.69;5072802;28;20094;-74
2022/12/28 13:08:39;;;;;;;4.47;1.10;;;;;;;9.34;67.95;100478.59;5068452;28;20047;-74
2022/12/28 13:12:09;;;;;;;;;;;;;;;9.35;68.52;100455.03;5069820;28;20455;-72
2022/12/28 13:15:25;;;;;;;3.80;0.63;;;;;;;9.31;67.77;100459.53;5064968;28;20220;-74
2022/12/28 13:18:30;;;;;;;6.25;5.35;;;;;;;9.31;68.49;100453.47;5054625;28;20094;-74
2022/12/28 13:21:49;;;;;;;5.78;3.13;;;;;;;9.26;68.57;100447.66;5068050;28;20047;-74
2022/12/28 13:24:53;;;;;;;2.58;0.80;;;;;;;9.24;68.83;100447.72;5057761;28;20070;-75
2022/12/28 13:27:58;;;;;;;;;;;;;;;9.17;69.16;100442.88;5070986;28;20051;-74
2022/12/28 13:31:07;;;;;;;4.07;1.25;;;;;;;9.18;69.87;100444.53;5073353;28;19935;-74
2022/12/28 13:34:26;;;;;;;3.30;0.90;;;;;;;9.19;68.58;100433.19;5070294;28;20599;-75
2022/12/28 13:37:29;;;;;;;2.38;0.70;;;;;;;9.28;68.25;100432.75;5069635;28;20055;-74
2022/12/28 13:44:08;;;;;;;3.25;0.65;;;;;;;9.29;69.20;100418.81;4986053;26;20080;-79
2022/12/28 14:10:50;;;;;;;7.32;4.50;;;;;;;8.85;76.12;100399.13;5145656;27;20343;-67
2022/12/28 14:13:55;;;;;;;4.07;1.60;;;;;;;9.00;73.64;100397.56;5124809;28;20514;-68
2022/12/28 14:40:04;;;;;;;4.18;1.20;;;;;;;8.95;76.23;100370.84;5104652;27;20383;-66
2022/12/28 14:43:23;;;;;;;5.40;2.15;;;;;;;8.98;75.79;100362.88;5105329;28;20507;-67
2022/12/28 14:46:37;;;;;;;6.40;2.78;;;;;;;9.00;76.56;100358.44;5101838;28;20058;-66
2022/12/28 14:49:43;;;;;;;6.07;1.92;;;;;;;9.13;76.56;100353.47;5104812;28;20785;-65
2022/12/28 14:52:48;;;;;;;4.43;1.70;;;;;;;9.17;76.83;100356.78;5102881;28;20105;-66
2022/12/28 14:56:04;;;;;;;6.22;2.17;;;;;;;9.16;76.30;100344.66;5104221;28;20124;-65
2022/12/28 14:59:20;;;;;;;7.65;2.65;;;;;;;9.04;76.20;100346.09;5104255;28;20425;-66
2022/12/28 15:02:32;;;;;;;9.23;4.90;;;;;;;9.05;76.42;100337.34;5091402;28;20042;-66
2022/12/28 15:05:44;;;;;;;8.52;2.40;;;;;;;9.06;78.15;100331.19;5104295;28;20400;-66
2022/12/28 15:08:49;;;;;;;4.57;1.50;;;;;;;9.03;76.38;100334.84;5104930;28;20039;-65
2022/12/28 15:12:14;;;;;;;6.97;1.33;;;;;;;9.00;78.23;100327.16;5105092;28;20589;-66
2022/12/28 15:15:21;;;;;;;9.88;4.60;;;;;;;8.97;77.72;100329.06;5103562;28;20047;-66
2022/12/28 15:18:26;;;;;;;6.00;2.60;;;;;;;9.07;78.40;100317.25;5102393;28;20190;-66
2022/12/28 15:21:31;;;;;;;6.75;3.22;;;;;;;8.88;78.68;100314.72;5103339;28;20058;-66
2022/12/28 15:24:34;;;;;;;5.95;2.60;;;;;;;8.99;78.58;100312.41;5103977;28;20078;-66
2022/12/28 15:27:38;;;;;;;7.60;1.95;;;;;;;8.99;79.48;100311.56;5104361;28;20102;-66
2022/12/28 15:30:42;;;;;;;3.90;1.55;;;;;;;8.94;79.76;100309.19;5089328;28;20055;-66
2022/12/28 15:33:46;;;;;;;3.45;1.60;;;;;;;8.94;79.56;100314.41;5083916;28;20113;-66
2022/12/28 15:36:51;;;;;;;12.82;6.82;;;;;;;8.83;79.15;100306.25;5083439;28;20097;-66
2022/12/28 15:39:54;;;;;;;4.40;2.10;;;;;;;8.84;80.21;100298.38;5075431;28;20070;-66
2022/12/28 15:42:57;;;;;;;;;;;;;;;8.73;80.87;100295.44;5076682;28;20047;-67
2022/12/28 15:46:00;;;;;;;14.20;8.50;;;;;;;8.73;80.86;100299.81;5090863;28;19919;-66
2022/12/28 15:49:06;;;;;;;8.80;6.95;;;;;;;8.76;80.94;100284.00;5090915;28;20089;-66
2022/12/28 15:52:09;;;;;;;8.50;5.50;;;;;;;8.77;80.76;100276.09;5091169;28;20133;-66
2022/12/28 15:55:13;;;;;;;8.10;5.57;;;;;;;8.69;80.70;100277.41;5090427;28;20059;-66
2022/12/28 15:58:16;;;;;;;8.68;5.80;;;;;;;8.33;81.85;100270.41;5089400;28;20035;-66
2022/12/28 16:01:21;;;;;;;7.00;2.28;;;;;;;8.35;82.08;100258.13;5089200;28;20420;-66
2022/12/28 16:16:43;;;;;;;8.23;4.93;;;;;;;8.25;82.61;100254.28;5109634;27;20382;-67
2022/12/28 16:19:47;;;;;;;9.20;4.10;;;;;;;8.33;82.61;100260.00;5110004;28;20047;-70
2022/12/28 16:22:52;;;;;;;;;;;;;;;8.38;82.22;100258.88;5108956;28;20070;-68
2022/12/28 16:25:56;;;;;;;6.80;3.55;;;;;;;8.35;81.58;100263.34;5109070;28;20012;-68
2022/12/28 16:28:59;;;;;;;;;;;;;;;8.49;81.18;100266.19;5109800;28;20050;-68
2022/12/28 16:32:03;;;;;;;5.32;4.05;;;;;;;8.55;79.97;100263.28;5109463;28;19919;-67
2022/12/28 16:35:07;;;;;;;6.05;1.20;;;;;;;8.72;75.67;100253.81;5109487;28;20085;-68
2022/12/28 16:38:10;;;;;;;2.83;0.90;;;;;;;8.77;76.20;100259.63;5109453;28;20043;-68
2022/12/28 16:41:13;;;;;;;;;;;;;;;8.71;75.88;100250.38;5110158;28;20082;-67
2022/12/28 16:44:19;;;;;;;5.50;2.17;;;;;;;8.76;75.08;100252.72;5106828;28;19918;-68
2022/12/28 16:47:22;;;;;;;6.05;1.55;;;;;;;8.83;74.33;100251.50;5105419;28;20515;-69
2022/12/28 16:50:26;;;;;;;;;;;;;;;8.90;73.97;100246.81;5106426;28;20074;-69
2022/12/28 16:53:32;;;;;;;2.97;1.08;;;;;;;8.95;73.72;100235.25;5106285;28;20379;-69
2022/12/28 16:56:35;;;;;;;5.88;1.73;;;;;;;8.89;73.86;100232.13;5107471;28;20120;-68
2022/12/28 16:59:40;;;;;;;;;;;;;;;8.99;74.20;100231.56;5108076;28;20077;-66
2022/12/28 17:02:43;;;;;;;3.30;1.20;;;;;;;8.97;74.19;100220.38;5107198;28;19923;-65
2022/12/28 17:05:48;;;;;;;5.03;1.38;;;;;;;8.98;73.55;100227.28;5102122;28;20043;-66
2022/12/28 17:08:52;;;;;;;2.80;1.08;;;;;;;9.00;74.10;100225.44;5108476;28;20416;-65
2022/12/28 17:11:55;;;;;;;;;;;;;;;9.01;73.67;100216.69;5101989;28;20109;-66
2022/12/28 17:14:59;;;;;;;2.78;1.00;;;;;;;9.04;73.30;100210.50;5099952;28;19965;-67
2022/12/28 17:18:02;;;;;;;;;;;;;;;9.03;72.94;100212.25;5085139;28;20056;-67
2022/12/28 17:21:08;;;;;;;4.50;1.20;;;;;;;9.07;73.15;100215.53;5076980;28;20302;-67
2022/12/28 17:24:12;;;;;;;2.78;1.02;;;;;;;8.99;73.06;100205.50;5086450;28;20094;-67
2022/12/28 17:27:16;;;;;;;3.22;0.98;;;;;;;8.97;73.42;100194.31;5094594;28;20051;-66
2022/12/28 17:30:19;;;;;;;3.67;1.20;;;;;;;8.95;72.92;100190.94;5094817;28;20123;-67
2022/12/28 17:33:23;;;;;;;4.70;1.60;;;;;;;8.99;73.01;100195.06;5094856;28;20128;-66
2022/12/28 17:36:27;;;;;;;2.72;1.00;;;;;;;9.04;73.01;100173.97;5091335;28;20075;-66
2022/12/28 17:39:32;;;;;;;5.03;1.70;;;;;;;8.98;73.29;100169.06;5094393;28;20097;-66
2022/12/28 17:42:36;;;;;;;4.72;2.53;;;;;;;8.98;73.78;100163.84;5073914;28;20191;-68
2022/12/28 17:45:42;;;;;;;;;;;;;;;8.98;73.46;100163.84;5088894;28;20065;-67
2022/12/28 17:48:45;;;;;;;9.98;4.78;;;;;;;8.91;74.24;100158.13;5093692;28;20496;-67
2022/12/28 17:51:51;;;;;;;3.33;1.33;;;;;;;8.94;73.40;100147.53;5093909;28;20043;-67
2022/12/28 17:54:55;;;;;;;6.07;1.48;;;;;;;8.99;75.84;100155.09;5094156;28;20082;-68
2022/12/28 17:57:58;;;;;;;4.32;1.95;;;;;;;8.79;74.63;100143.09;5093310;28;20043;-67
2022/12/28 18:01:02;;;;;;;3.92;1.60;;;;;;;8.91;73.48;100147.69;5092572;28;20051;-67
2022/12/28 18:04:07;;;;;;;5.18;1.88;;;;;;;8.95;75.34;100143.16;5093182;28;20135;-67
2022/12/28 18:07:10;;;;;;;3.75;1.52;;;;;;;8.89;73.45;100127.81;5092959;28;20245;-68
2022/12/28 18:10:13;;;;;;;;;;;;;;;9.04;73.94;100120.03;5094268;28;20411;-67
2022/12/28 18:13:17;;;;;;;3.92;2.40;;;;;;;9.01;73.70;100111.53;5092663;28;20003;-67
2022/12/28 18:16:25;;;;;;;3.08;1.40;;;;;;;8.88;73.53;100111.34;5093155;28;20442;-67
2022/12/28 18:19:29;;;;;;;3.22;1.40;;;;;;;9.02;75.38;100103.63;5092476;28;20081;-68
2022/12/28 18:22:33;;;;;;;7.30;2.25;;;;;;;9.04;75.28;100086.13;5093205;28;20115;-67
2022/12/28 18:25:36;;;;;;;;;;;;;;;8.80;74.93;100084.81;5093425;28;20401;-67
2022/12/28 18:28:40;;;;;;;;;;;;;;;8.73;76.37;100081.69;5092936;28;19961;-67
2022/12/28 18:31:43;;;;;;;16.38;6.13;;;;;;;8.80;76.84;100090.03;5093217;28;20021;-67
2022/12/28 18:34:47;;;;;;;12.68;4.53;;;;;;;8.80;75.93;100090.03;5092298;28;20637;-67
2022/12/28 18:37:50;;;;;;;7.78;2.83;;;;;;;8.83;74.69;100075.06;5091696;28;20097;-67
2022/12/28 18:40:57;;;;;;;56.05;20.25;;;;;;;8.97;77.10;100061.31;5079767;28;20058;-67
2022/12/28 18:44:04;;;;;;;23.23;8.27;;;;;;;8.98;76.32;100060.38;5092370;28;20105;-67
2022/12/28 18:47:08;;;;;;;4.15;2.25;;;;;;;8.83;74.95;100062.03;5090983;28;20055;-66
2022/12/28 18:50:11;;;;;;;2.63;1.35;;;;;;;8.91;73.99;100055.59;5092605;28;20213;-67
2022/12/28 18:53:14;;;;;;;;;;;;;;;8.92;73.74;100050.28;5093367;28;20404;-67
2022/12/28 18:56:19;;;;;;;;;;;;;;;9.05;72.88;100055.69;4722632;28;9999953;-68
2022/12/28 18:59:22;;;;;;;6.03;3.05;;;;;;;9.13;72.58;100047.47;5069543;28;20049;-67
2022/12/28 19:02:26;;;;;;;2.63;1.40;;;;;;;8.94;73.96;100045.84;5069293;28;20051;-67
2022/12/28 19:05:30;;;;;;;5.85;2.03;;;;;;;8.91;73.92;100046.00;5088123;28;20093;-67
2022/12/28 19:08:36;;;;;;;3.63;1.65;;;;;;;8.92;73.88;100045.06;5088380;28;20063;-69
2022/12/28 19:11:40;;;;;;;4.45;1.65;;;;;;;8.90;73.30;100025.19;5089669;28;20192;-68
2022/12/28 19:14:43;;;;;;;3.72;1.50;;;;;;;9.01;75.10;100028.94;5071163;28;20082;-67
2022/12/28 19:17:47;;;;;;;8.65;3.67;;;;;;;8.94;73.73;100026.75;5088859;28;20096;-68
2022/12/28 19:20:57;;;;;;;;;;;;;;;8.88;73.70;100022.69;5092365;28;20100;-68
2022/12/28 19:24:05;;;;;;;6.30;3.70;;;;;;;9.00;73.16;100022.03;5090606;28;19938;-68
2022/12/28 19:27:08;;;;;;;5.65;2.92;;;;;;;9.02;72.98;100028.00;5072210;28;20405;-67